LZKZ/KSC METAR and TAF weather

Enter ICAO airport designator
Station Type Date Time Source
LZKZ METAR 2020/09/23 19:00 UTC NOAA

LZKZ 231900Z 36005KT CAVOK 17/13 Q1010


Station Type Date Time Source
LZKZ Decoded METAR 2020/09/23 19:00 UTC NOAA

Kosice, Barca, Slovakia (LZKZ) 48-39-47N 021-14-28E
Sep 23, 2020 - 03:00 PM EDT / 2020.09.23 1900 UTC
Wind: from the N (360 degrees) at 6 MPH (5 KT):0
Visibility: greater than 7 mile(s):0
Temperature: 62 F (17 C)
Dew Point: 55 F (13 C)
Relative Humidity: 77%
Pressure (altimeter): 29.83 in. Hg (1010 hPa)
ob: LZKZ 231900Z 36005KT CAVOK 17/13 Q1010
cycle: 19

Station Type Date Time Source
LZKZ TAF 2020/09/23 18:54 UTC NOAA

TAF LZKZ 231700Z 2318/2418 01009KT 9999 SCT045
TEMPO 2318/2321 21018KT SHRA FEW035CB BKN045
TEMPO 2321/2402 RA SCT018 BKN035
BECMG 2402/2404 VRB02KT 2000 BR SCT002 BKN010 PROB40
TEMPO 2403/2406 0800 BCFG BKN002
BECMG 2406/2408 21008KT 9999 NSW SCT010 BKN030
TEMPO 2408/2415 SHRA FEW030CB BKN040

Example: see airport list